Time;durP1;ratioP1;P1;durP2;ratioP2;P2;SDS_P1;SDS_P2;PMS_P1;PMS_P2;Temp;Humidity;BMP_temperature;BMP_pressure;BME280_temperature;BME280_humidity;BME280_pressure;Samples;Min_cycle;Max_cycle;Signal;HPM_P1;HPM_P2
2023/06/12 00:00:09;;;;;;;6.63;6.03;;;22.10;48.00;;;;;;4989414;28;20074;-47
2023/06/12 00:02:49;;;;;;;6.68;6.18;;;22.00;47.90;;;;;;4987866;28;20093;-47
2023/06/12 00:05:19;;;;;;;7.45;6.80;;;22.00;48.20;;;;;;4984945;28;20042;-46
2023/06/12 00:07:47;;;;;;;7.20;6.50;;;21.90;48.00;;;;;;4990248;28;20105;-48
2023/06/12 00:10:16;;;;;;;7.47;6.88;;;21.90;47.90;;;;;;4989551;28;20593;-45
2023/06/12 00:12:52;;;;;;;6.82;6.22;;;21.80;48.00;;;;;;4984720;28;20096;-49
2023/06/12 00:15:21;;;;;;;6.47;5.97;;;21.80;48.30;;;;;;4990561;28;20121;-48
2023/06/12 00:17:48;;;;;;;7.10;5.68;;;21.70;48.10;;;;;;4988856;28;20077;-46
2023/06/12 00:20:20;;;;;;;7.00;6.40;;;21.70;48.10;;;;;;4990369;28;20062;-47
2023/06/12 00:22:54;;;;;;;6.55;5.80;;;21.60;48.50;;;;;;4981787;28;20034;-49
2023/06/12 00:25:26;;;;;;;6.57;5.97;;;21.60;48.20;;;;;;4984363;28;20229;-47
2023/06/12 00:28:03;;;;;;;6.55;5.95;;;21.50;48.30;;;;;;4981187;28;20038;-48
2023/06/12 00:30:37;;;;;;;6.57;5.97;;;21.50;48.50;;;;;;4972874;28;20077;-46
2023/06/12 00:33:10;;;;;;;5.97;5.47;;;21.40;48.50;;;;;;4968812;28;20042;-49
2023/06/12 00:35:38;;;;;;;5.88;5.47;;;21.40;48.70;;;;;;4971604;28;20119;-49
2023/06/12 00:38:12;;;;;;;6.88;6.25;;;21.40;48.70;;;;;;4971129;28;20450;-46
2023/06/12 00:40:42;;;;;;;6.40;5.72;;;21.30;48.90;;;;;;4984542;28;20058;-49
2023/06/12 00:43:13;;;;;;;6.80;6.20;;;21.20;48.70;;;;;;4971649;28;20035;-47
2023/06/12 00:45:41;;;;;;;6.40;5.90;;;21.20;48.70;;;;;;4989402;28;20046;-49
2023/06/12 00:48:17;;;;;;;7.15;6.45;;;21.20;48.90;;;;;;4969688;28;20039;-49
2023/06/12 00:50:52;;;;;;;6.25;5.75;;;21.10;49.00;;;;;;4972299;28;20100;-44
2023/06/12 00:53:26;;;;;;;6.32;5.82;;;21.10;48.90;;;;;;4987222;28;20073;-46
2023/06/12 00:55:54;;;;;;;7.47;6.55;;;21.00;49.00;;;;;;4968677;28;20068;-47
2023/06/12 00:58:24;;;;;;;5.85;5.35;;;21.00;48.90;;;;;;4971257;28;20578;-45
2023/06/12 01:00:56;;;;;;;6.75;6.15;;;21.00;49.10;;;;;;4990087;28;20038;-45
2023/06/12 01:03:24;;;;;;;6.15;5.65;;;20.90;49.20;;;;;;4969352;28;20057;-47
2023/06/12 01:05:53;;;;;;;6.47;5.88;;;20.90;49.30;;;;;;4971573;28;20635;-47
2023/06/12 01:08:49;;;;;;;6.93;5.75;;;20.80;49.20;;;;;;4971247;28;20125;-46
2023/06/12 01:11:17;;;;;;;;;;;20.80;49.80;;;;;;4988663;28;20042;-47
2023/06/12 01:13:48;;;;;;;5.68;5.18;;;20.80;48.50;;;;;;4971649;28;20392;-46
2023/06/12 01:16:15;;;;;;;5.65;5.13;;;20.70;48.70;;;;;;4974926;28;20080;-47
2023/06/12 01:18:46;;;;;;;6.57;6.07;;;20.60;49.00;;;;;;4992208;28;20046;-45
2023/06/12 01:21:18;;;;;;;6.18;5.68;;;20.60;49.80;;;;;;4975476;28;20042;-48
2023/06/12 01:24:08;;;;;;;6.53;6.03;;;20.50;49.30;;;;;;4989790;28;20199;-50
2023/06/12 01:26:57;;;;;;;9.70;5.80;;;20.50;49.80;;;;;;4988038;28;20044;-49
2023/06/12 01:29:53;;;;;;;5.90;5.40;;;20.40;49.20;;;;;;4992700;28;20117;-49
2023/06/12 01:32:30;;;;;;;6.28;5.68;;;20.40;49.80;;;;;;4969086;28;20066;-47
2023/06/12 01:35:17;;;;;;;6.05;5.45;;;20.30;49.30;;;;;;4974760;28;20081;-46
2023/06/12 01:37:50;;;;;;;5.85;5.35;;;20.30;49.40;;;;;;4991757;28;20045;-47
2023/06/12 01:40:27;;;;;;;7.78;6.75;;;20.20;49.80;;;;;;4974830;28;20125;-45
2023/06/12 01:42:57;;;;;;;7.10;6.50;;;20.20;50.10;;;;;;4983757;28;20687;-49
2023/06/12 01:45:25;;;;;;;6.25;5.75;;;20.20;50.50;;;;;;4991560;28;20070;-45
2023/06/12 01:47:56;;;;;;;6.05;5.45;;;20.10;50.10;;;;;;4973047;28;20061;-44
2023/06/12 01:50:32;;;;;;;6.28;5.78;;;20.10;50.10;;;;;;4974910;28;20046;-46
2023/06/12 01:53:07;;;;;;;6.72;6.13;;;20.00;50.00;;;;;;4974887;28;20044;-49
2023/06/12 01:55:37;;;;;;;6.93;6.30;;;20.00;50.00;;;;;;4984953;28;20061;-49
2023/06/12 01:58:08;;;;;;;6.18;5.63;;;20.00;50.60;;;;;;4973312;28;20034;-49
2023/06/12 02:00:55;;;;;;;5.97;5.45;;;19.90;50.00;;;;;;4991535;28;20053;-48
2023/06/12 02:03:24;;;;;;;6.00;5.50;;;19.90;50.00;;;;;;4971134;28;20042;-46
2023/06/12 02:05:56;;;;;;;6.38;5.40;;;19.80;50.20;;;;;;4958273;28;20043;-46
2023/06/12 02:08:22;;;;;;;6.43;5.75;;;19.80;50.60;;;;;;4973609;28;20140;-46
2023/06/12 02:10:55;;;;;;;6.32;5.65;;;19.70;50.40;;;;;;4975377;28;20050;-45
2023/06/12 02:13:21;;;;;;;5.68;5.05;;;19.70;50.40;;;;;;4973564;28;20050;-47
2023/06/12 02:15:50;;;;;;;5.88;5.38;;;19.70;50.50;;;;;;4973712;28;20054;-48
2023/06/12 02:18:17;;;;;;;5.68;5.13;;;19.60;50.50;;;;;;4973490;28;20125;-48
2023/06/12 02:20:44;;;;;;;6.22;5.18;;;19.60;50.60;;;;;;4972935;28;20046;-47
2023/06/12 02:23:17;;;;;;;6.72;5.60;;;19.50;50.60;;;;;;4971976;28;20046;-50
2023/06/12 02:25:44;;;;;;;5.82;5.25;;;19.50;50.70;;;;;;4966251;28;20039;-46
2023/06/12 02:28:11;;;;;;;5.88;5.32;;;19.50;50.80;;;;;;4973003;28;20042;-48
2023/06/12 02:30:44;;;;;;;7.25;6.35;;;19.40;50.80;;;;;;4989981;28;20451;-50
2023/06/12 02:33:13;;;;;;;5.57;5.07;;;19.40;50.90;;;;;;4970745;28;20046;-47
2023/06/12 02:35:43;;;;;;;6.00;5.50;;;19.30;51.00;;;;;;4969399;28;20053;-46
2023/06/12 02:38:16;;;;;;;6.57;5.97;;;19.30;51.10;;;;;;4972414;28;20038;-46
2023/06/12 02:40:45;;;;;;;7.38;5.72;;;19.30;51.20;;;;;;4973463;28;20058;-48
2023/06/12 02:43:13;;;;;;;7.43;5.78;;;19.30;51.10;;;;;;4973038;28;20518;-46
2023/06/12 02:45:45;;;;;;;6.70;5.07;;;19.20;51.10;;;;;;4967979;28;20045;-45
2023/06/12 02:48:13;;;;;;;6.45;5.70;;;19.20;51.10;;;;;;4966526;28;20394;-47
2023/06/12 02:50:39;;;;;;;5.72;4.93;;;19.10;51.00;;;;;;4974292;28;20039;-46
2023/06/12 02:53:12;;;;;;;5.85;5.35;;;19.10;51.00;;;;;;4971674;28;20042;-49
2023/06/12 02:55:52;;;;;;;5.95;5.40;;;19.10;51.20;;;;;;4964427;28;20533;-45
2023/06/12 02:58:19;;;;;;;6.47;5.40;;;19.00;51.10;;;;;;4973778;28;20454;-46
2023/06/12 03:00:46;;;;;;;5.93;5.03;;;19.00;50.90;;;;;;4973710;28;20134;-48
2023/06/12 03:03:12;;;;;;;6.72;6.13;;;18.90;51.00;;;;;;4969993;28;20096;-49
2023/06/12 03:05:41;;;;;;;6.35;5.75;;;18.90;51.20;;;;;;4970536;28;20050;-47
2023/06/12 03:08:08;;;;;;;6.10;5.50;;;18.90;51.30;;;;;;4973531;28;20042;-45
2023/06/12 03:10:38;;;;;;;6.22;5.60;;;18.80;51.20;;;;;;4988460;28;20121;-46
2023/06/12 03:13:09;;;;;;;5.82;5.25;;;18.70;51.10;;;;;;4982737;28;20042;-47
2023/06/12 03:15:36;;;;;;;5.90;5.32;;;18.70;51.10;;;;;;4974477;28;20392;-47
2023/06/12 03:18:07;;;;;;;5.88;5.38;;;18.70;51.20;;;;;;4971049;28;20050;-48
2023/06/12 03:20:35;;;;;;;5.78;5.28;;;18.60;51.30;;;;;;4966831;28;20047;-47
2023/06/12 03:23:02;;;;;;;7.03;6.43;;;18.60;51.40;;;;;;4956602;28;20414;-50
2023/06/12 03:25:31;;;;;;;6.25;5.68;;;18.50;51.50;;;;;;4965944;28;20420;-45
2023/06/12 03:27:58;;;;;;;6.13;5.53;;;18.50;51.90;;;;;;4971794;28;20062;-49
2023/06/12 03:30:26;;;;;;;6.85;5.78;;;18.50;51.60;;;;;;4973728;28;20137;-45
2023/06/12 03:32:56;;;;;;;5.45;4.95;;;18.40;51.70;;;;;;4965193;28;20464;-49
2023/06/12 03:35:23;;;;;;;7.03;6.00;;;18.40;51.70;;;;;;4973287;28;20092;-44
2023/06/12 03:37:50;;;;;;;7.70;6.53;;;18.40;51.80;;;;;;4990087;28;20046;-46
2023/06/12 03:40:19;;;;;;;6.82;6.13;;;18.30;51.90;;;;;;4969303;28;20427;-45
2023/06/12 03:42:48;;;;;;;6.88;5.68;;;18.30;51.90;;;;;;4964835;28;20038;-48
2023/06/12 03:45:17;;;;;;;6.90;5.85;;;18.30;52.00;;;;;;4972418;28;20046;-48
2023/06/12 03:47:46;;;;;;;7.53;5.57;;;18.30;52.10;;;;;;4968868;28;20118;-47
2023/06/12 03:50:16;;;;;;;7.13;5.85;;;18.20;52.30;;;;;;4971457;28;20054;-46
2023/06/12 03:52:45;;;;;;;6.43;5.80;;;18.20;52.40;;;;;;4971960;28;20039;-46
2023/06/12 03:55:15;;;;;;;6.68;6.07;;;18.20;52.40;;;;;;4971065;28;20038;-44
2023/06/12 03:57:42;;;;;;;10.57;6.30;;;18.20;52.50;;;;;;4972933;28;20049;-46
2023/06/12 04:00:09;;;;;;;6.25;5.63;;;18.20;52.70;;;;;;4972599;28;20049;-44
2023/06/12 04:02:46;;;;;;;7.43;5.85;;;18.20;52.70;;;;;;4984979;28;20035;-46
2023/06/12 04:05:20;;;;;;;7.53;5.93;;;18.20;52.80;;;;;;4973159;28;20045;-47
2023/06/12 04:07:48;;;;;;;6.30;5.63;;;18.20;53.00;;;;;;4972176;28;20049;-46
2023/06/12 04:10:17;;;;;;;6.38;5.78;;;18.20;53.00;;;;;;4957610;28;20066;-44
2023/06/12 04:12:46;;;;;;;7.05;6.45;;;18.20;53.50;;;;;;4969440;28;20043;-48
2023/06/12 04:15:12;;;;;;;7.20;6.18;;;18.20;53.60;;;;;;4973319;28;20049;-46
2023/06/12 04:17:42;;;;;;;6.20;5.60;;;18.20;53.70;;;;;;4972173;28;20066;-49
2023/06/12 04:20:09;;;;;;;6.80;5.88;;;18.20;54.10;;;;;;4963202;28;20543;-47
2023/06/12 04:22:37;;;;;;;6.63;6.03;;;18.20;54.00;;;;;;4963192;28;20042;-47
2023/06/12 04:25:05;;;;;;;7.53;6.82;;;18.20;54.20;;;;;;4965920;28;20104;-46
2023/06/12 04:27:33;;;;;;;6.97;6.35;;;18.20;54.40;;;;;;4971760;28;20454;-45
2023/06/12 04:29:59;;;;;;;7.30;6.35;;;18.20;54.60;;;;;;4980613;28;20070;-48
2023/06/12 04:32:29;;;;;;;7.07;6.10;;;18.20;54.80;;;;;;4969568;28;20763;-47
2023/06/12 04:34:56;;;;;;;7.95;6.57;;;18.30;55.00;;;;;;4988404;28;20056;-46
2023/06/12 04:37:23;;;;;;;7.45;6.40;;;18.30;55.10;;;;;;4965282;28;20042;-48
2023/06/12 04:39:50;;;;;;;6.90;6.20;;;18.40;55.30;;;;;;4977236;28;20073;-46
2023/06/12 04:42:18;;;;;;;7.30;6.18;;;18.40;55.40;;;;;;4964145;28;20723;-47
2023/06/12 04:44:46;;;;;;;6.30;5.70;;;18.50;55.50;;;;;;4990235;28;20035;-48
2023/06/12 04:47:16;;;;;;;7.82;6.50;;;18.50;55.80;;;;;;4972302;28;20434;-47
2023/06/12 04:49:45;;;;;;;11.07;6.47;;;18.50;55.90;;;;;;4971761;28;20038;-48
2023/06/12 04:52:12;;;;;;;7.03;6.25;;;18.60;56.20;;;;;;4973890;28;20057;-47
2023/06/12 04:54:41;;;;;;;6.82;6.22;;;18.70;56.40;;;;;;4985923;28;20125;-47
2023/06/12 04:57:12;;;;;;;8.10;5.90;;;18.70;56.50;;;;;;4989249;28;20410;-49
2023/06/12 04:59:39;;;;;;;6.70;5.68;;;18.80;56.70;;;;;;4975852;28;20137;-45
2023/06/12 05:02:08;;;;;;;8.13;6.88;;;18.80;56.60;;;;;;4983653;28;20065;-49
2023/06/12 05:04:38;;;;;;;6.97;6.22;;;18.90;56.90;;;;;;4975845;28;20048;-45
2023/06/12 05:07:13;;;;;;;7.18;6.57;;;18.90;57.00;;;;;;4991443;28;20038;-49
2023/06/12 05:09:41;;;;;;;7.15;6.55;;;19.00;57.30;;;;;;4975537;28;20070;-50
2023/06/12 05:12:08;;;;;;;7.00;5.95;;;19.00;57.30;;;;;;4970090;28;20054;-49
2023/06/12 05:14:38;;;;;;;6.82;6.22;;;19.10;57.50;;;;;;4969481;28;20157;-48
2023/06/12 05:17:05;;;;;;;6.88;6.18;;;19.20;57.70;;;;;;4973891;28;20050;-46
2023/06/12 05:19:32;;;;;;;7.28;6.68;;;19.20;57.70;;;;;;4992011;28;20104;-47
2023/06/12 05:21:59;;;;;;;6.88;6.28;;;19.30;57.80;;;;;;4968911;28;20050;-46
2023/06/12 05:24:26;;;;;;;6.53;5.93;;;19.30;57.80;;;;;;4984246;28;20038;-46
2023/06/12 05:26:52;;;;;;;6.50;5.75;;;19.40;57.90;;;;;;4967311;28;20120;-45
2023/06/12 05:29:19;;;;;;;6.63;6.00;;;19.50;58.00;;;;;;4974457;28;20052;-49
2023/06/12 05:31:46;;;;;;;7.18;6.53;;;19.60;58.10;;;;;;4968140;28;20385;-49
2023/06/12 05:34:15;;;;;;;7.05;6.32;;;19.60;58.20;;;;;;4977951;28;20050;-47
2023/06/12 05:36:43;;;;;;;7.07;6.10;;;19.70;58.30;;;;;;4973992;28;20430;-47
2023/06/12 05:39:10;;;;;;;6.55;5.95;;;19.80;58.30;;;;;;4970447;28;20045;-45
2023/06/12 05:41:41;;;;;;;7.22;6.53;;;19.80;58.30;;;;;;4977466;28;20050;-49
2023/06/12 05:44:09;;;;;;;7.25;5.80;;;19.90;58.40;;;;;;4975727;28;20078;-48
2023/06/12 05:46:36;;;;;;;6.82;6.10;;;20.00;58.40;;;;;;4972672;28;20715;-46
2023/06/12 05:49:03;;;;;;;7.05;6.45;;;20.00;58.30;;;;;;4974137;28;20042;-45
2023/06/12 05:51:31;;;;;;;6.65;5.65;;;20.10;58.40;;;;;;4979551;28;20050;-49
2023/06/12 05:53:58;;;;;;;6.75;6.03;;;20.10;58.20;;;;;;4971097;28;20121;-47
2023/06/12 05:56:30;;;;;;;7.10;5.90;;;20.20;58.20;;;;;;4974351;28;20046;-47
2023/06/12 05:58:59;;;;;;;6.65;5.68;;;20.30;56.60;;;;;;4968076;28;20066;-45
2023/06/12 06:01:26;;;;;;;7.30;5.38;;;20.40;57.20;;;;;;4966862;28;20046;-45
2023/06/12 06:03:55;;;;;;;9.27;5.68;;;20.50;56.30;;;;;;4978518;28;20053;-45
2023/06/12 06:06:23;;;;;;;6.80;6.10;;;20.60;56.50;;;;;;4975953;28;20035;-47
2023/06/12 06:08:51;;;;;;;6.32;5.75;;;20.60;56.70;;;;;;4970099;28;20057;-48
2023/06/12 06:11:17;;;;;;;7.03;5.45;;;20.70;56.80;;;;;;4978524;28;20085;-46
2023/06/12 06:13:44;;;;;;;6.78;5.28;;;20.80;56.90;;;;;;4954403;28;20113;-48
2023/06/12 06:16:12;;;;;;;7.30;5.82;;;20.90;56.40;;;;;;4976196;28;20137;-49
2023/06/12 06:18:40;;;;;;;6.07;5.40;;;21.00;55.30;;;;;;4990371;28;20042;-49
2023/06/12 06:21:06;;;;;;;8.85;5.70;;;21.00;55.80;;;;;;4976622;28;20105;-46
2023/06/12 06:23:35;;;;;;;6.88;6.18;;;21.20;54.60;;;;;;4969428;28;20039;-46
2023/06/12 06:26:03;;;;;;;6.07;5.35;;;21.20;53.90;;;;;;4970962;28;20120;-47
2023/06/12 06:28:30;;;;;;;6.50;5.72;;;21.30;53.50;;;;;;4969727;28;20506;-45
2023/06/12 06:30:59;;;;;;;5.68;5.18;;;21.40;52.90;;;;;;4971189;28;20050;-46
2023/06/12 06:33:26;;;;;;;7.03;5.70;;;21.50;52.70;;;;;;4974009;28;20518;-45
2023/06/12 06:35:55;;;;;;;6.22;5.35;;;21.60;52.40;;;;;;4978647;28;20046;-45
2023/06/12 06:38:24;;;;;;;8.23;5.45;;;21.70;52.60;;;;;;4969007;28;20042;-49
2023/06/12 06:40:51;;;;;;;6.43;5.93;;;21.80;52.20;;;;;;5036612;22;20494;-47
2023/06/12 06:43:20;;;;;;;6.60;5.97;;;21.90;51.50;;;;;;5001113;28;20092;-46
2023/06/12 06:45:55;;;;;;;5.68;5.05;;;22.00;51.20;;;;;;5000881;28;20053;-44
2023/06/12 06:48:22;;;;;;;6.43;5.63;;;22.10;50.20;;;;;;5013053;28;20499;-48
2023/06/12 06:50:49;;;;;;;5.30;4.88;;;22.20;49.80;;;;;;5021432;28;20104;-46
2023/06/12 06:53:16;;;;;;;5.70;5.20;;;22.30;49.70;;;;;;5020662;28;20037;-50
2023/06/12 06:55:46;;;;;;;5.32;4.80;;;22.40;49.20;;;;;;5009088;28;20042;-50
2023/06/12 06:58:14;;;;;;;8.45;5.72;;;22.50;48.70;;;;;;5011082;28;20052;-50
2023/06/12 07:00:41;;;;;;;6.00;5.05;;;22.60;48.90;;;;;;5012239;28;20071;-46
2023/06/12 07:03:08;;;;;;;5.60;5.10;;;22.70;48.60;;;;;;5030063;28;20041;-51
2023/06/12 07:05:37;;;;;;;6.35;5.07;;;22.80;48.00;;;;;;5009061;28;20138;-50
2023/06/12 07:08:03;;;;;;;5.57;5.07;;;22.90;48.40;;;;;;5010582;28;20057;-48
2023/06/12 07:10:33;;;;;;;6.28;5.15;;;22.90;48.00;;;;;;5012669;28;20045;-49
2023/06/12 07:13:02;;;;;;;6.05;4.90;;;23.00;47.70;;;;;;5011209;28;20107;-50
2023/06/12 07:15:52;;;;;;;6.97;5.57;;;23.10;47.90;;;;;;5023635;28;20137;-48
2023/06/12 07:18:21;;;;;;;5.50;5.00;;;23.20;47.70;;;;;;5011102;28;20461;-48
2023/06/12 07:20:47;;;;;;;6.78;6.07;;;23.30;47.80;;;;;;5016971;28;20136;-51
2023/06/12 07:23:14;;;;;;;5.85;5.25;;;23.40;47.30;;;;;;5010130;28;20100;-50
2023/06/12 07:25:41;;;;;;;5.18;4.78;;;23.40;47.10;;;;;;5017516;28;20037;-47
2023/06/12 07:28:07;;;;;;;6.13;5.53;;;23.50;47.30;;;;;;5027727;28;20136;-46
2023/06/12 07:30:36;;;;;;;6.38;5.72;;;23.60;47.00;;;;;;5006782;28;20069;-47
2023/06/12 07:33:04;;;;;;;5.93;5.38;;;23.70;46.90;;;;;;5009724;28;20041;-47
2023/06/12 07:35:31;;;;;;;5.30;4.80;;;23.70;46.80;;;;;;5029550;28;20048;-48
2023/06/12 07:37:59;;;;;;;5.65;5.05;;;23.80;46.80;;;;;;5010469;28;20605;-50
2023/06/12 07:40:26;;;;;;;6.80;5.60;;;23.90;46.90;;;;;;5005268;28;20048;-47
2023/06/12 07:42:53;;;;;;;6.20;5.47;;;24.00;46.80;;;;;;5008458;28;20041;-50
2023/06/12 07:45:20;;;;;;;6.05;5.03;;;24.10;46.60;;;;;;5016561;28;20042;-47
2023/06/12 07:47:49;;;;;;;8.38;5.80;;;24.10;46.90;;;;;;5008031;28;20088;-50
2023/06/12 07:50:20;;;;;;;5.57;4.97;;;24.20;46.40;;;;;;5013840;28;20502;-50
2023/06/12 07:52:49;;;;;;;5.68;5.07;;;24.20;46.30;;;;;;5021284;28;20116;-47
2023/06/12 07:55:20;;;;;;;6.05;5.07;;;24.30;46.20;;;;;;5019975;28;20035;-49
2023/06/12 07:57:47;;;;;;;5.85;5.25;;;24.30;46.50;;;;;;5006500;28;20541;-48
2023/06/12 08:00:14;;;;;;;12.88;5.78;;;24.40;46.20;;;;;;5029955;28;20052;-50
2023/06/12 08:02:57;;;;;;;5.63;5.13;;;24.50;45.90;;;;;;5022536;28;20117;-48
2023/06/12 08:05:32;;;;;;;11.52;6.45;;;24.50;45.30;;;;;;5005991;28;20681;-49
2023/06/12 08:08:02;;;;;;;7.60;5.85;;;24.60;44.70;;;;;;5010922;28;20041;-48
2023/06/12 08:10:30;;;;;;;6.05;5.45;;;24.60;45.10;;;;;;5008809;28;20069;-51
2023/06/12 08:12:57;;;;;;;6.13;5.32;;;24.70;44.60;;;;;;5003185;28;20508;-50
2023/06/12 08:15:24;;;;;;;6.90;5.75;;;24.70;44.40;;;;;;5012282;28;20049;-50
2023/06/12 08:17:51;;;;;;;8.77;6.35;;;24.80;44.70;;;;;;5009728;28;20738;-48
2023/06/12 08:20:18;;;;;;;5.32;4.82;;;24.90;44.40;;;;;;5003830;28;20042;-52
2023/06/12 08:22:47;;;;;;;6.97;5.35;;;24.90;43.80;;;;;;5012614;28;20045;-48
2023/06/12 08:25:14;;;;;;;5.72;5.22;;;24.90;44.20;;;;;;5017396;28;20080;-48
2023/06/12 08:27:41;;;;;;;6.15;5.57;;;25.00;44.40;;;;;;5026795;28;20045;-47
2023/06/12 08:30:09;;;;;;;6.47;5.82;;;25.00;44.00;;;;;;5015709;28;20037;-48
2023/06/12 08:32:38;;;;;;;6.25;5.50;;;25.10;43.90;;;;;;5016673;28;20062;-50
2023/06/12 08:35:05;;;;;;;6.15;5.40;;;25.10;43.90;;;;;;5014648;28;20488;-48
2023/06/12 08:37:33;;;;;;;6.10;5.30;;;25.20;44.00;;;;;;5014577;28;20072;-49
2023/06/12 08:40:00;;;;;;;6.25;5.65;;;25.30;44.00;;;;;;5013626;28;20045;-45
2023/06/12 08:42:27;;;;;;;7.82;6.05;;;25.30;43.70;;;;;;5035884;28;20410;-50
2023/06/12 08:45:03;;;;;;;6.25;5.65;;;25.40;43.40;;;;;;5008777;28;20084;-49
2023/06/12 08:47:49;;;;;;;6.07;5.45;;;25.40;43.60;;;;;;5032213;28;20061;-50
2023/06/12 08:50:18;;;;;;;6.57;5.65;;;25.60;43.90;;;;;;5029214;28;20061;-47
2023/06/12 08:52:49;;;;;;;7.40;6.70;;;25.60;43.60;;;;;;5033134;28;20045;-50
2023/06/12 08:55:21;;;;;;;7.57;6.50;;;25.60;43.50;;;;;;5026872;28;20050;-47
2023/06/12 08:57:47;;;;;;;6.25;5.63;;;25.70;43.30;;;;;;5029984;28;20049;-49
2023/06/12 09:00:15;;;;;;;6.13;5.50;;;25.70;43.70;;;;;;5032461;28;20632;-50
2023/06/12 09:02:51;;;;;;;6.80;6.10;;;25.80;43.90;;;;;;5023544;28;20045;-49
2023/06/12 09:05:26;;;;;;;6.05;5.47;;;25.90;43.50;;;;;;5030700;28;20041;-46
2023/06/12 09:07:53;;;;;;;6.65;6.07;;;26.00;43.20;;;;;;5031665;28;20397;-48
2023/06/12 09:10:22;;;;;;;5.95;5.45;;;26.00;43.10;;;;;;5029454;28;20059;-47
2023/06/12 09:12:56;;;;;;;7.70;6.32;;;26.10;42.80;;;;;;5035254;28;20056;-50
2023/06/12 09:15:24;;;;;;;6.13;5.63;;;26.20;43.20;;;;;;5031740;28;20056;-47
2023/06/12 09:17:55;;;;;;;7.18;6.07;;;26.30;43.10;;;;;;5030285;28;20045;-49
2023/06/12 09:20:30;;;;;;;6.30;5.57;;;26.30;42.50;;;;;;5019546;28;20045;-50
2023/06/12 09:23:00;;;;;;;6.45;5.85;;;26.40;42.30;;;;;;5024218;28;20701;-46
2023/06/12 09:25:39;;;;;;;7.38;6.68;;;26.50;42.50;;;;;;5022602;28;20530;-47
2023/06/12 09:28:09;;;;;;;6.60;5.82;;;26.60;41.70;;;;;;5030233;28;20034;-51
2023/06/12 09:30:45;;;;;;;7.97;6.47;;;26.60;42.00;;;;;;5025427;28;20560;-50
2023/06/12 09:33:12;;;;;;;7.07;6.25;;;26.70;41.90;;;;;;5028064;28;20100;-49
2023/06/12 09:35:52;;;;;;;7.00;6.28;;;26.70;42.40;;;;;;5031961;28;20061;-46
2023/06/12 09:38:31;;;;;;;7.40;6.47;;;26.90;42.90;;;;;;5030222;28;20072;-47
2023/06/12 09:40:58;;;;;;;6.95;6.35;;;26.90;42.30;;;;;;5036223;28;20068;-50
2023/06/12 09:43:26;;;;;;;6.65;6.05;;;27.00;42.00;;;;;;5025380;28;20037;-48
2023/06/12 09:45:53;;;;;;;7.28;6.57;;;27.10;41.50;;;;;;5030471;28;20502;-47
2023/06/12 09:48:20;;;;;;;8.77;5.82;;;27.20;42.30;;;;;;5024863;28;20418;-50
2023/06/12 09:50:47;;;;;;;6.93;6.32;;;27.20;42.00;;;;;;5032508;28;20041;-50
2023/06/12 09:53:17;;;;;;;7.03;6.40;;;27.30;41.90;;;;;;5029636;28;20124;-49
2023/06/12 09:55:45;;;;;;;7.03;6.32;;;27.40;41.40;;;;;;5027670;28;20689;-48
2023/06/12 09:58:13;;;;;;;6.85;6.18;;;27.50;41.00;;;;;;5030710;28;20053;-48
2023/06/12 10:00:40;;;;;;;6.57;5.97;;;27.50;40.90;;;;;;5026712;28;20470;-47
2023/06/12 10:03:11;;;;;;;8.05;6.35;;;27.60;41.00;;;;;;5027900;28;20077;-45
2023/06/12 10:05:42;;;;;;;6.38;5.88;;;27.60;40.80;;;;;;5027235;28;20038;-51
2023/06/12 10:08:10;;;;;;;6.43;5.78;;;27.70;40.10;;;;;;5011598;28;20072;-48
2023/06/12 10:10:39;;;;;;;6.95;6.30;;;27.80;40.00;;;;;;5029840;28;20042;-49
2023/06/12 10:13:08;;;;;;;6.40;5.80;;;27.80;40.00;;;;;;5022369;28;20748;-45
2023/06/12 10:15:34;;;;;;;6.90;5.95;;;27.90;40.10;;;;;;5030438;28;20067;-51
2023/06/12 10:18:01;;;;;;;6.40;5.82;;;27.90;39.60;;;;;;5026979;28;20466;-48
2023/06/12 10:20:30;;;;;;;6.68;5.82;;;28.00;39.70;;;;;;5030405;28;20413;-51
2023/06/12 10:23:00;;;;;;;6.05;5.55;;;28.10;39.30;;;;;;5030096;28;20107;-51
2023/06/12 10:25:27;;;;;;;6.43;5.82;;;28.20;39.50;;;;;;5016197;28;20492;-52
2023/06/12 10:27:55;;;;;;;6.40;5.80;;;28.20;39.60;;;;;;5029661;28;20037;-50
2023/06/12 10:30:23;;;;;;;6.13;5.53;;;28.30;39.30;;;;;;5030282;28;20049;-45
2023/06/12 10:32:50;;;;;;;6.30;5.70;;;28.30;39.10;;;;;;5022132;28;20041;-49
2023/06/12 10:35:30;;;;;;;9.00;6.15;;;28.40;39.60;;;;;;5029767;28;20045;-50
2023/06/12 10:37:57;;;;;;;6.20;5.65;;;28.50;39.30;;;;;;5028316;28;20092;-49
2023/06/12 10:40:24;;;;;;;6.75;5.45;;;28.50;39.50;;;;;;5027495;28;20183;-47
2023/06/12 10:43:12;;;;;;;6.05;5.55;;;28.50;39.10;;;;;;5030692;28;20065;-50
2023/06/12 10:45:38;;;;;;;7.88;4.97;;;28.70;39.40;;;;;;5012624;28;20033;-52
2023/06/12 10:48:05;;;;;;;5.43;5.03;;;28.70;38.90;;;;;;5026642;28;20049;-51
2023/06/12 10:50:45;;;;;;;5.68;5.18;;;28.70;39.10;;;;;;5022106;28;20033;-46
2023/06/12 10:53:14;;;;;;;5.75;5.28;;;28.80;38.40;;;;;;5028761;28;20470;-49
2023/06/12 10:55:42;;;;;;;5.30;4.90;;;28.90;38.90;;;;;;5025100;28;20049;-48
2023/06/12 10:58:15;;;;;;;6.03;5.10;;;29.00;38.50;;;;;;5011761;28;20049;-48
2023/06/12 11:00:45;;;;;;;6.25;5.38;;;29.10;38.20;;;;;;5030594;28;20128;-44
2023/06/12 11:03:25;;;;;;;5.80;5.22;;;29.10;37.20;;;;;;5028198;28;20546;-46
2023/06/12 11:06:13;;;;;;;4.90;4.50;;;29.20;37.20;;;;;;5031374;28;20049;-47
2023/06/12 11:08:43;;;;;;;5.38;4.80;;;29.30;37.30;;;;;;5023433;28;20037;-48
2023/06/12 11:11:11;;;;;;;5.25;4.80;;;29.30;37.00;;;;;;5023811;28;20731;-48
2023/06/12 11:13:42;;;;;;;5.50;5.00;;;29.40;36.90;;;;;;5031016;28;20071;-46
2023/06/12 11:16:16;;;;;;;5.00;4.60;;;29.50;37.10;;;;;;5030028;28;20060;-49
2023/06/12 11:18:43;;;;;;;5.30;4.50;;;29.60;36.80;;;;;;5026691;28;20041;-48
2023/06/12 11:21:10;;;;;;;4.97;4.22;;;29.60;36.50;;;;;;5026325;28;20046;-50
2023/06/12 11:23:42;;;;;;;6.43;5.03;;;29.70;36.50;;;;;;5027470;28;20034;-48
2023/06/12 11:26:09;;;;;;;5.07;4.70;;;29.90;35.80;;;;;;5026219;28;20098;-48
2023/06/12 11:28:35;;;;;;;5.82;5.32;;;29.90;35.90;;;;;;5037737;28;20069;-47
2023/06/12 11:31:02;;;;;;;6.93;4.78;;;29.90;36.20;;;;;;5028035;28;20037;-49
2023/06/12 11:33:39;;;;;;;6.57;5.25;;;30.00;36.60;;;;;;5029561;28;20045;-48
2023/06/12 11:36:06;;;;;;;5.50;5.00;;;30.10;36.40;;;;;;5029835;28;20099;-46
2023/06/12 11:38:33;;;;;;;5.72;5.00;;;30.20;35.70;;;;;;5026451;28;20053;-45
2023/06/12 11:41:03;;;;;;;5.45;4.95;;;30.20;36.40;;;;;;5023296;28;20098;-46
2023/06/12 11:43:31;;;;;;;5.57;5.07;;;30.30;36.20;;;;;;5029705;28;20494;-45
2023/06/12 11:46:04;;;;;;;5.30;4.90;;;30.40;36.20;;;;;;5028208;28;20033;-45
2023/06/12 11:48:31;;;;;;;6.50;4.43;;;30.40;35.50;;;;;;5025424;28;20129;-50
2023/06/12 11:51:02;;;;;;;4.45;4.15;;;30.60;35.90;;;;;;5028856;28;20037;-48
2023/06/12 11:53:30;;;;;;;5.35;4.85;;;30.70;35.70;;;;;;5027937;28;20040;-51
2023/06/12 11:56:02;;;;;;;5.45;4.85;;;30.70;35.20;;;;;;5011141;28;20179;-45
2023/06/12 11:58:36;;;;;;;9.57;4.90;;;30.80;35.00;;;;;;5027260;28;20037;-48
2023/06/12 12:01:13;;;;;;;4.50;4.17;;;30.90;34.80;;;;;;5028810;28;20495;-48
2023/06/12 12:03:44;;;;;;;6.00;4.50;;;31.00;34.00;;;;;;5030245;28;20116;-49
2023/06/12 12:06:10;;;;;;;5.57;4.65;;;31.10;33.50;;;;;;5029005;28;20042;-49
2023/06/12 12:08:37;;;;;;;4.35;3.95;;;31.20;33.10;;;;;;5026294;28;20065;-49
2023/06/12 12:11:28;;;;;;;4.55;4.15;;;31.30;32.50;;;;;;5022271;28;20470;-48
2023/06/12 12:14:03;;;;;;;5.18;4.75;;;31.40;32.50;;;;;;5030090;28;20041;-49
2023/06/12 12:16:39;;;;;;;4.60;4.28;;;31.50;32.60;;;;;;5028746;28;20124;-45
2023/06/12 12:19:25;;;;;;;4.55;4.20;;;31.60;32.10;;;;;;5026368;28;20052;-44
2023/06/12 12:21:52;;;;;;;4.53;4.13;;;31.60;32.10;;;;;;5022399;28;20053;-43
2023/06/12 12:24:19;;;;;;;5.38;4.88;;;31.80;32.60;;;;;;5023074;28;20042;-46
2023/06/12 12:26:51;;;;;;;9.25;4.95;;;31.70;32.20;;;;;;5017696;28;20045;-43
2023/06/12 12:29:21;;;;;;;4.93;4.53;;;31.80;31.70;;;;;;5029924;28;20041;-45
2023/06/12 12:31:48;;;;;;;4.78;4.38;;;31.80;32.20;;;;;;5030363;28;20092;-49
2023/06/12 12:34:15;;;;;;;5.03;4.53;;;31.80;31.30;;;;;;5013561;28;20045;-44
2023/06/12 12:36:42;;;;;;;5.85;4.65;;;31.80;31.30;;;;;;5022252;28;20041;-49
2023/06/12 12:39:09;;;;;;;7.97;4.85;;;31.90;31.90;;;;;;5029229;28;20049;-46
2023/06/12 12:41:36;;;;;;;5.57;4.32;;;32.00;31.90;;;;;;5028079;28;20502;-48
2023/06/12 12:44:03;;;;;;;4.60;4.22;;;32.10;32.40;;;;;;5022956;28;20033;-47
2023/06/12 12:46:30;;;;;;;5.13;4.72;;;32.20;32.00;;;;;;5038696;22;20057;-47
2023/06/12 12:48:57;;;;;;;8.98;4.95;;;32.30;31.80;;;;;;5011259;28;20442;-51
2023/06/12 12:51:24;;;;;;;4.72;4.30;;;32.40;31.60;;;;;;5008226;28;20053;-48
2023/06/12 12:53:51;;;;;;;5.00;4.60;;;32.50;31.70;;;;;;5007734;28;20125;-46
2023/06/12 12:56:18;;;;;;;6.63;5.40;;;32.70;31.40;;;;;;5015491;28;20085;-48
2023/06/12 12:58:44;;;;;;;5.28;4.85;;;32.70;31.00;;;;;;5032968;28;20128;-47
2023/06/12 13:01:11;;;;;;;4.88;4.47;;;32.90;31.80;;;;;;5028154;28;20049;-47